GLD1043 SCEL-SLVR
Flight info
| Callsign | GLD1043 |
|---|---|
| Flight time | 2h 37m |
| Altitude | 38000 |
| Route | DILOK7B DILOK DCT MIBAS/N0475F370 UT671 EGIKA/N0477F390 UL322 VIR |
| Aircraft | B77W/H-SDE1E2E3FGHIJ2J3J4J5M1RWXYZ/LB1D1 |
Departure
| Time | 2026-04-21 16:35 |
|---|---|
| Airport | Comodoro Arturo Merino Benítez International Airport (SCEL) |
Arrival
| Time | 2026-04-21 19:12 |
|---|---|
| Airport | Viru Viru International Airport (SLVR) |
| Time | Latitude | Longitude | Altitude | Speed | Heading |
|---|---|---|---|---|---|
| 2026-04-21 15:28 | -33.40052 | -70.78959 | 1569 ft | 0 kts | 357° |
| 2026-04-21 16:18 | -33.40084 | -70.78957 | 1569 ft | 4 kts | 357° |
| 2026-04-21 16:19 | -33.40107 | -70.78956 | 1569 ft | 3 kts | 359° |
| 2026-04-21 16:19 | -33.40130 | -70.78962 | 1569 ft | 4 kts | 51° |
| 2026-04-21 16:19 | -33.40138 | -70.78979 | 1569 ft | 4 kts | 83° |
| 2026-04-21 16:19 | -33.40138 | -70.79011 | 1569 ft | 4 kts | 91° |
| 2026-04-21 16:20 | -33.40138 | -70.79024 | 1569 ft | 0 kts | 88° |
| 2026-04-21 16:24 | -33.40138 | -70.79022 | 1569 ft | 1 kts | 88° |
| 2026-04-21 16:25 | -33.40137 | -70.79002 | 1569 ft | 4 kts | 88° |
| 2026-04-21 16:25 | -33.40136 | -70.78962 | 1569 ft | 6 kts | 88° |
| 2026-04-21 16:25 | -33.40132 | -70.78900 | 1569 ft | 9 kts | 81° |
| 2026-04-21 16:25 | -33.40124 | -70.78826 | 1569 ft | 8 kts | 83° |
| 2026-04-21 16:26 | -33.40114 | -70.78767 | 1569 ft | 7 kts | 59° |
| 2026-04-21 16:26 | -33.40070 | -70.78754 | 1569 ft | 7 kts | 358° |
| 2026-04-21 16:26 | -33.40013 | -70.78757 | 1569 ft | 9 kts | 358° |
| 2026-04-21 16:26 | -33.39939 | -70.78760 | 1569 ft | 12 kts | 358° |
| 2026-04-21 16:27 | -33.39844 | -70.78765 | 1569 ft | 15 kts | 357° |
| 2026-04-21 16:27 | -33.39738 | -70.78772 | 1569 ft | 16 kts | 357° |
| 2026-04-21 16:27 | -33.39617 | -70.78780 | 1569 ft | 18 kts | 357° |
| 2026-04-21 16:27 | -33.39494 | -70.78786 | 1569 ft | 18 kts | 358° |
| 2026-04-21 16:28 | -33.39374 | -70.78791 | 1569 ft | 16 kts | 357° |
| 2026-04-21 16:28 | -33.39259 | -70.78797 | 1569 ft | 16 kts | 357° |
| 2026-04-21 16:28 | -33.39146 | -70.78803 | 1569 ft | 16 kts | 357° |
| 2026-04-21 16:28 | -33.39036 | -70.78809 | 1569 ft | 15 kts | 357° |
| 2026-04-21 16:29 | -33.38929 | -70.78815 | 1569 ft | 15 kts | 357° |
| 2026-04-21 16:29 | -33.38823 | -70.78822 | 1569 ft | 15 kts | 357° |
| 2026-04-21 16:29 | -33.38716 | -70.78828 | 1569 ft | 15 kts | 357° |
| 2026-04-21 16:29 | -33.38616 | -70.78833 | 1569 ft | 14 kts | 357° |
| 2026-04-21 16:30 | -33.38521 | -70.78838 | 1569 ft | 14 kts | 358° |
| 2026-04-21 16:30 | -33.38425 | -70.78843 | 1569 ft | 14 kts | 358° |
| 2026-04-21 16:30 | -33.38329 | -70.78847 | 1569 ft | 14 kts | 358° |
| 2026-04-21 16:30 | -33.38231 | -70.78852 | 1569 ft | 15 kts | 358° |
| 2026-04-21 16:31 | -33.38120 | -70.78858 | 1569 ft | 17 kts | 357° |
| 2026-04-21 16:31 | -33.38001 | -70.78864 | 1569 ft | 17 kts | 357° |
| 2026-04-21 16:31 | -33.37883 | -70.78871 | 1569 ft | 17 kts | 357° |
| 2026-04-21 16:31 | -33.37770 | -70.78877 | 1569 ft | 13 kts | 357° |
| 2026-04-21 16:32 | -33.37683 | -70.78882 | 1569 ft | 9 kts | 357° |
| 2026-04-21 16:32 | -33.37622 | -70.78852 | 1569 ft | 10 kts | 59° |
| 2026-04-21 16:32 | -33.37617 | -70.78763 | 1569 ft | 11 kts | 89° |
| 2026-04-21 16:32 | -33.37625 | -70.78688 | 1569 ft | 8 kts | 121° |
| 2026-04-21 16:33 | -33.37661 | -70.78671 | 1570 ft | 5 kts | 174° |
| 2026-04-21 16:33 | -33.37681 | -70.78668 | 1570 ft | 0 kts | 177° |
| 2026-04-21 16:34 | -33.37793 | -70.78663 | 1569 ft | 46 kts | 177° |
| 2026-04-21 16:34 | -33.38403 | -70.78628 | 1569 ft | 127 kts | 177° |
| 2026-04-21 16:34 | -33.39502 | -70.78571 | 1653 ft | 178 kts | 178° |
| 2026-04-21 16:35 | -33.40751 | -70.78497 | 2369 ft | 182 kts | 178° |
| 2026-04-21 16:35 | -33.42038 | -70.78399 | 3120 ft | 188 kts | 177° |
| 2026-04-21 16:35 | -33.43358 | -70.78314 | 3796 ft | 195 kts | 178° |
| 2026-04-21 16:35 | -33.44769 | -70.78260 | 4249 ft | 210 kts | 182° |
| 2026-04-21 16:36 | -33.46241 | -70.78716 | 4436 ft | 237 kts | 214° |
| 2026-04-21 16:36 | -33.47370 | -70.80257 | 4706 ft | 261 kts | 251° |
| 2026-04-21 16:36 | -33.47492 | -70.82429 | 5408 ft | 266 kts | 283° |
| 2026-04-21 16:36 | -33.47093 | -70.84593 | 6201 ft | 269 kts | 281° |
| 2026-04-21 16:37 | -33.46926 | -70.86842 | 7163 ft | 272 kts | 275° |
| 2026-04-21 16:37 | -33.46925 | -70.89097 | 8136 ft | 268 kts | 273° |
| 2026-04-21 16:37 | -33.46984 | -70.91351 | 8821 ft | 274 kts | 272° |
| 2026-04-21 16:37 | -33.47015 | -70.93632 | 8992 ft | 274 kts | 281° |
| 2026-04-21 16:38 | -33.46386 | -70.95735 | 9090 ft | 268 kts | 309° |
| 2026-04-21 16:38 | -33.45020 | -70.97205 | 9975 ft | 265 kts | 330° |
| 2026-04-21 16:38 | -33.43309 | -70.98103 | 10665 ft | 277 kts | 345° |
| 2026-04-21 16:38 | -33.41317 | -70.98293 | 10870 ft | 307 kts | 0° |
| 2026-04-21 16:39 | -33.39066 | -70.98073 | 11170 ft | 335 kts | 4° |
| 2026-04-21 16:39 | -33.36703 | -70.97761 | 11897 ft | 347 kts | 4° |
| 2026-04-21 16:39 | -33.34270 | -70.97455 | 12859 ft | 354 kts | 3° |
| 2026-04-21 16:39 | -33.31802 | -70.97172 | 13910 ft | 359 kts | 2° |
| 2026-04-21 16:40 | -33.29295 | -70.96917 | 14766 ft | 365 kts | 1° |
| 2026-04-21 16:40 | -33.26734 | -70.96676 | 15682 ft | 372 kts | 1° |
| 2026-04-21 16:40 | -33.24129 | -70.96434 | 16587 ft | 379 kts | 1° |
| 2026-04-21 16:40 | -33.21505 | -70.95987 | 17335 ft | 389 kts | 12° |
| 2026-04-21 16:41 | -33.19061 | -70.94543 | 18090 ft | 405 kts | 31° |
| 2026-04-21 16:41 | -33.16764 | -70.92501 | 18734 ft | 416 kts | 32° |
| 2026-04-21 16:41 | -33.14413 | -70.90430 | 19469 ft | 422 kts | 31° |
| 2026-04-21 16:41 | -33.12022 | -70.88358 | 20350 ft | 426 kts | 31° |
| 2026-04-21 16:42 | -33.09601 | -70.86282 | 21141 ft | 431 kts | 31° |
| 2026-04-21 16:42 | -33.07141 | -70.84183 | 21864 ft | 439 kts | 31° |
| 2026-04-21 16:42 | -33.04637 | -70.82051 | 22596 ft | 446 kts | 31° |
| 2026-04-21 16:42 | -33.02139 | -70.79871 | 23347 ft | 452 kts | 32° |
| 2026-04-21 16:43 | -32.99595 | -70.77596 | 24011 ft | 459 kts | 32° |
| 2026-04-21 16:43 | -32.97028 | -70.75295 | 24649 ft | 464 kts | 32° |
| 2026-04-21 16:43 | -32.94430 | -70.72983 | 25304 ft | 468 kts | 31° |
| 2026-04-21 16:43 | -32.91737 | -70.70786 | 25753 ft | 465 kts | 21° |
| 2026-04-21 16:44 | -32.88719 | -70.69524 | 26207 ft | 456 kts | 2° |
| 2026-04-21 16:44 | -32.85645 | -70.69293 | 26771 ft | 446 kts | 354° |
| 2026-04-21 16:44 | -32.82514 | -70.69197 | 27344 ft | 453 kts | 355° |
| 2026-04-21 16:44 | -32.79347 | -70.69030 | 27972 ft | 457 kts | 355° |
| 2026-04-21 16:45 | -32.76154 | -70.68824 | 28623 ft | 460 kts | 355° |
| 2026-04-21 16:45 | -32.72938 | -70.68603 | 29233 ft | 464 kts | 355° |
| 2026-04-21 16:45 | -32.69702 | -70.68380 | 29797 ft | 468 kts | 355° |
| 2026-04-21 16:45 | -32.66437 | -70.68157 | 30286 ft | 471 kts | 355° |
| 2026-04-21 16:46 | -32.63145 | -70.67937 | 30710 ft | 475 kts | 354° |
| 2026-04-21 16:46 | -32.59841 | -70.67718 | 31162 ft | 476 kts | 354° |
| 2026-04-21 16:46 | -32.56531 | -70.67495 | 31738 ft | 475 kts | 354° |
| 2026-04-21 16:46 | -32.53247 | -70.67274 | 32382 ft | 471 kts | 354° |
| 2026-04-21 16:47 | -32.50021 | -70.67056 | 32964 ft | 469 kts | 353° |
| 2026-04-21 16:47 | -32.46770 | -70.66837 | 33608 ft | 466 kts | 353° |
| 2026-04-21 16:47 | -32.43543 | -70.66621 | 34247 ft | 463 kts | 353° |
| 2026-04-21 16:47 | -32.40326 | -70.66407 | 34759 ft | 460 kts | 353° |
| 2026-04-21 16:48 | -32.37134 | -70.66195 | 35250 ft | 458 kts | 352° |
| 2026-04-21 16:48 | -32.33948 | -70.65983 | 35737 ft | 456 kts | 352° |
| 2026-04-21 16:48 | -32.30824 | -70.65776 | 36194 ft | 454 kts | 352° |
| 2026-04-21 16:48 | -32.27670 | -70.65567 | 36628 ft | 452 kts | 352° |
| 2026-04-21 16:49 | -32.24530 | -70.65359 | 37078 ft | 450 kts | 352° |
| 2026-04-21 16:49 | -32.18319 | -70.64948 | 37133 ft | 444 kts | 353° |
| 2026-04-21 16:50 | -32.12149 | -70.64542 | 37142 ft | 446 kts | 352° |
| 2026-04-21 16:50 | -32.05935 | -70.64137 | 37151 ft | 449 kts | 352° |
| 2026-04-21 16:51 | -31.99694 | -70.63726 | 37198 ft | 456 kts | 352° |
| 2026-04-21 16:51 | -31.93376 | -70.63286 | 37166 ft | 453 kts | 354° |
| 2026-04-21 16:52 | -31.87091 | -70.61739 | 37144 ft | 463 kts | 3° |
| 2026-04-21 16:52 | -31.80908 | -70.59716 | 37192 ft | 463 kts | 4° |
| 2026-04-21 16:53 | -31.74669 | -70.57737 | 37190 ft | 465 kts | 3° |
| 2026-04-21 16:53 | -31.68374 | -70.55833 | 37178 ft | 468 kts | 2° |
| 2026-04-21 16:54 | -31.62050 | -70.53949 | 37173 ft | 469 kts | 2° |
| 2026-04-21 16:54 | -31.55721 | -70.52068 | 37180 ft | 472 kts | 2° |
| 2026-04-21 16:55 | -31.49346 | -70.50169 | 37176 ft | 471 kts | 2° |
| 2026-04-21 16:55 | -31.43034 | -70.48286 | 37212 ft | 466 kts | 2° |
| 2026-04-21 16:56 | -31.36760 | -70.46424 | 37227 ft | 463 kts | 1° |
| 2026-04-21 16:56 | -31.30536 | -70.44581 | 37196 ft | 464 kts | 1° |
| 2026-04-21 16:57 | -31.24262 | -70.42728 | 37228 ft | 466 kts | 1° |
| 2026-04-21 16:57 | -31.17975 | -70.40877 | 37199 ft | 469 kts | 1° |
| 2026-04-21 16:58 | -31.11635 | -70.39004 | 37210 ft | 470 kts | 2° |
| 2026-04-21 16:58 | -31.05272 | -70.37126 | 37164 ft | 469 kts | 1° |
| 2026-04-21 16:58 | -31.02179 | -70.36215 | 37127 ft | 456 kts | 1° |
| 2026-04-21 16:59 | -30.99098 | -70.35299 | 37207 ft | 458 kts | 1° |
| 2026-04-21 16:59 | -30.92826 | -70.33463 | 37215 ft | 469 kts | 2° |
| 2026-04-21 17:00 | -30.86504 | -70.31606 | 37189 ft | 468 kts | 1° |
| 2026-04-21 17:00 | -30.81289 | -70.29848 | 37192 ft | 480 kts | 11° |
| 2026-04-21 17:00 | -30.77338 | -70.27203 | 37206 ft | 499 kts | 24° |
| 2026-04-21 17:01 | -30.74689 | -70.24509 | 37205 ft | 514 kts | 36° |
| 2026-04-21 17:01 | -30.70083 | -70.18085 | 37206 ft | 523 kts | 40° |
| 2026-04-21 17:02 | -30.65449 | -70.11440 | 37205 ft | 532 kts | 40° |
| 2026-04-21 17:02 | -30.60722 | -70.04785 | 37193 ft | 533 kts | 40° |
| 2026-04-21 17:03 | -30.55998 | -69.98224 | 37202 ft | 527 kts | 40° |
| 2026-04-21 17:03 | -30.51323 | -69.91767 | 37176 ft | 524 kts | 40° |
| 2026-04-21 17:04 | -30.46623 | -69.85297 | 37134 ft | 522 kts | 40° |
| 2026-04-21 17:04 | -30.41947 | -69.78859 | 37176 ft | 522 kts | 40° |
| 2026-04-21 17:05 | -30.37278 | -69.72447 | 37160 ft | 523 kts | 40° |
| 2026-04-21 17:05 | -30.32579 | -69.65993 | 37119 ft | 522 kts | 40° |
| 2026-04-21 17:06 | -30.27910 | -69.59581 | 37116 ft | 519 kts | 39° |
| 2026-04-21 17:06 | -30.24046 | -69.54279 | 37120 ft | 518 kts | 39° |
| 2026-04-21 17:07 | -30.19351 | -69.47899 | 37101 ft | 522 kts | 40° |
| 2026-04-21 17:07 | -30.13869 | -69.40425 | 37104 ft | 525 kts | 40° |
| 2026-04-21 17:08 | -30.09143 | -69.33979 | 37085 ft | 525 kts | 40° |
| 2026-04-21 17:08 | -30.05219 | -69.28635 | 37083 ft | 523 kts | 40° |
| 2026-04-21 17:09 | -29.98163 | -69.19057 | 37063 ft | 520 kts | 40° |
| 2026-04-21 17:09 | -29.93467 | -69.12697 | 37091 ft | 519 kts | 39° |
| 2026-04-21 17:10 | -29.88784 | -69.06365 | 37071 ft | 518 kts | 39° |
| 2026-04-21 17:10 | -29.84126 | -69.00077 | 37061 ft | 519 kts | 39° |
| 2026-04-21 17:11 | -29.79439 | -68.93758 | 37111 ft | 518 kts | 39° |
| 2026-04-21 17:11 | -29.74751 | -68.87446 | 37093 ft | 517 kts | 39° |
| 2026-04-21 17:12 | -29.70071 | -68.81158 | 37118 ft | 516 kts | 39° |
| 2026-04-21 17:12 | -29.65412 | -68.74908 | 37113 ft | 518 kts | 39° |
| 2026-04-21 17:13 | -29.60712 | -68.68608 | 37132 ft | 519 kts | 38° |
| 2026-04-21 17:13 | -29.55794 | -68.62599 | 37138 ft | 507 kts | 30° |
| 2026-04-21 17:14 | -29.50246 | -68.57801 | 37120 ft | 490 kts | 19° |
| 2026-04-21 17:14 | -29.44436 | -68.53838 | 37137 ft | 488 kts | 19° |
| 2026-04-21 17:15 | -29.38570 | -68.49843 | 37115 ft | 489 kts | 19° |
| 2026-04-21 17:15 | -29.32760 | -68.45848 | 37113 ft | 490 kts | 19° |
| 2026-04-21 17:16 | -29.26915 | -68.41812 | 37131 ft | 490 kts | 19° |
| 2026-04-21 17:16 | -29.21069 | -68.37777 | 37126 ft | 490 kts | 19° |
| 2026-04-21 17:17 | -29.15252 | -68.33775 | 37118 ft | 489 kts | 19° |
| 2026-04-21 17:17 | -29.09410 | -68.29763 | 37162 ft | 491 kts | 19° |
| 2026-04-21 17:18 | -29.06471 | -68.27747 | 37473 ft | 491 kts | 19° |
| 2026-04-21 17:18 | -29.03548 | -68.25739 | 37910 ft | 488 kts | 19° |
| 2026-04-21 17:18 | -29.00638 | -68.23739 | 38368 ft | 485 kts | 19° |
| 2026-04-21 17:18 | -28.97750 | -68.21756 | 38793 ft | 483 kts | 19° |
| 2026-04-21 17:19 | -28.94871 | -68.19783 | 39044 ft | 482 kts | 19° |
| 2026-04-21 17:19 | -28.92015 | -68.17834 | 39076 ft | 485 kts | 19° |
| 2026-04-21 17:19 | -28.86225 | -68.13878 | 39106 ft | 483 kts | 19° |
| 2026-04-21 17:20 | -28.80480 | -68.09951 | 39103 ft | 478 kts | 19° |
| 2026-04-21 17:20 | -28.74818 | -68.06089 | 39096 ft | 474 kts | 19° |
| 2026-04-21 17:21 | -28.69167 | -68.02243 | 39103 ft | 471 kts | 19° |
| 2026-04-21 17:21 | -28.63541 | -67.98418 | 39100 ft | 471 kts | 19° |
| 2026-04-21 17:22 | -28.57900 | -67.94588 | 39100 ft | 471 kts | 19° |
| 2026-04-21 17:22 | -28.52249 | -67.90770 | 39040 ft | 472 kts | 19° |
| 2026-04-21 17:23 | -28.46605 | -67.86959 | 39066 ft | 472 kts | 19° |
| 2026-04-21 17:23 | -28.40962 | -67.83155 | 39092 ft | 470 kts | 19° |
| 2026-04-21 17:24 | -28.35363 | -67.79387 | 39072 ft | 470 kts | 19° |
| 2026-04-21 17:24 | -28.29762 | -67.75610 | 39041 ft | 463 kts | 19° |
| 2026-04-21 17:25 | -28.24188 | -67.71870 | 39021 ft | 469 kts | 19° |
| 2026-04-21 17:25 | -28.18520 | -67.68078 | 39070 ft | 476 kts | 19° |
| 2026-04-21 17:26 | -28.12838 | -67.64253 | 39074 ft | 478 kts | 20° |
| 2026-04-21 17:26 | -28.07122 | -67.60369 | 39070 ft | 479 kts | 20° |
| 2026-04-21 17:27 | -28.01419 | -67.56476 | 39059 ft | 478 kts | 20° |
| 2026-04-21 17:27 | -27.95733 | -67.52601 | 39064 ft | 475 kts | 20° |
| 2026-04-21 17:28 | -27.90085 | -67.48761 | 39024 ft | 472 kts | 20° |
| 2026-04-21 17:28 | -27.84513 | -67.44983 | 39055 ft | 466 kts | 20° |
| 2026-04-21 17:29 | -27.78999 | -67.41239 | 39069 ft | 460 kts | 20° |
| 2026-04-21 17:29 | -27.73497 | -67.37525 | 39059 ft | 464 kts | 20° |
| 2026-04-21 17:30 | -27.67887 | -67.33751 | 39062 ft | 474 kts | 20° |
| 2026-04-21 17:30 | -27.62211 | -67.29904 | 39061 ft | 476 kts | 20° |
| 2026-04-21 17:31 | -27.56499 | -67.26059 | 39061 ft | 477 kts | 20° |
| 2026-04-21 17:31 | -27.50933 | -67.22304 | 39042 ft | 460 kts | 19° |
| 2026-04-21 17:32 | -27.45378 | -67.18565 | 39108 ft | 472 kts | 20° |
| 2026-04-21 17:32 | -27.39649 | -67.14735 | 39039 ft | 478 kts | 20° |
| 2026-04-21 17:33 | -27.34000 | -67.10925 | 39033 ft | 468 kts | 20° |
| 2026-04-21 17:33 | -27.28465 | -67.07213 | 39093 ft | 469 kts | 20° |
| 2026-04-21 17:34 | -27.22803 | -67.03436 | 39063 ft | 475 kts | 20° |
| 2026-04-21 17:34 | -27.17120 | -66.99634 | 39049 ft | 474 kts | 20° |
| 2026-04-21 17:35 | -27.11447 | -66.95840 | 39025 ft | 473 kts | 20° |
| 2026-04-21 17:35 | -27.05803 | -66.92073 | 39034 ft | 471 kts | 20° |
| 2026-04-21 17:36 | -27.00210 | -66.88347 | 39025 ft | 470 kts | 20° |
| 2026-04-21 17:36 | -26.94582 | -66.84604 | 39028 ft | 470 kts | 20° |
| 2026-04-21 17:37 | -26.88973 | -66.80871 | 39023 ft | 468 kts | 21° |
| 2026-04-21 17:37 | -26.83366 | -66.77153 | 39021 ft | 468 kts | 20° |
| 2026-04-21 17:38 | -26.77754 | -66.73429 | 39036 ft | 470 kts | 20° |
| 2026-04-21 17:38 | -26.72146 | -66.69719 | 39044 ft | 472 kts | 20° |
| 2026-04-21 17:39 | -26.66474 | -66.65973 | 39029 ft | 474 kts | 20° |
| 2026-04-21 17:39 | -26.60785 | -66.62215 | 39009 ft | 475 kts | 21° |
| 2026-04-21 17:40 | -26.55122 | -66.58475 | 39053 ft | 470 kts | 20° |
| 2026-04-21 17:40 | -26.49540 | -66.54796 | 39079 ft | 468 kts | 20° |
| 2026-04-21 17:41 | -26.43906 | -66.51094 | 39082 ft | 472 kts | 20° |
| 2026-04-21 17:41 | -26.38196 | -66.47347 | 39096 ft | 478 kts | 20° |
| 2026-04-21 17:42 | -26.32447 | -66.43571 | 39088 ft | 480 kts | 20° |
| 2026-04-21 17:42 | -26.26737 | -66.39821 | 39092 ft | 479 kts | 20° |
| 2026-04-21 17:43 | -26.20992 | -66.36054 | 39078 ft | 478 kts | 21° |
| 2026-04-21 17:43 | -26.15273 | -66.32310 | 39084 ft | 475 kts | 20° |
| 2026-04-21 17:44 | -26.09605 | -66.28608 | 39086 ft | 475 kts | 20° |
| 2026-04-21 17:44 | -26.03892 | -66.24880 | 39039 ft | 476 kts | 20° |
| 2026-04-21 17:45 | -25.98174 | -66.21152 | 39053 ft | 476 kts | 21° |
| 2026-04-21 17:45 | -25.92441 | -66.17418 | 39062 ft | 478 kts | 21° |
| 2026-04-21 17:46 | -25.86742 | -66.13706 | 39066 ft | 476 kts | 21° |
| 2026-04-21 17:46 | -25.81012 | -66.09983 | 39043 ft | 478 kts | 21° |
| 2026-04-21 17:47 | -25.75269 | -66.06259 | 39040 ft | 478 kts | 20° |
| 2026-04-21 17:47 | -25.69506 | -66.02554 | 39024 ft | 478 kts | 20° |
| 2026-04-21 17:48 | -25.63788 | -65.98879 | 39067 ft | 477 kts | 21° |
| 2026-04-21 17:48 | -25.58048 | -65.95179 | 39068 ft | 477 kts | 21° |
| 2026-04-21 17:49 | -25.52319 | -65.91469 | 39060 ft | 477 kts | 21° |
| 2026-04-21 17:49 | -25.46584 | -65.87769 | 39087 ft | 476 kts | 21° |
| 2026-04-21 17:50 | -25.40853 | -65.84071 | 39090 ft | 477 kts | 21° |
| 2026-04-21 17:50 | -25.35105 | -65.80369 | 39079 ft | 478 kts | 21° |
| 2026-04-21 17:51 | -25.29393 | -65.76694 | 39083 ft | 478 kts | 21° |
| 2026-04-21 17:51 | -25.23638 | -65.72996 | 39120 ft | 478 kts | 21° |
| 2026-04-21 17:52 | -25.17858 | -65.69289 | 39093 ft | 480 kts | 21° |
| 2026-04-21 17:52 | -25.12130 | -65.65611 | 39104 ft | 477 kts | 21° |
| 2026-04-21 17:53 | -25.06405 | -65.61942 | 39125 ft | 474 kts | 21° |
| 2026-04-21 17:53 | -25.00674 | -65.58285 | 39122 ft | 477 kts | 21° |
| 2026-04-21 17:54 | -24.94925 | -65.54610 | 39142 ft | 478 kts | 21° |
| 2026-04-21 17:54 | -24.89180 | -65.50940 | 39141 ft | 480 kts | 21° |
| 2026-04-21 17:55 | -24.83244 | -65.47697 | 39130 ft | 470 kts | 12° |
| 2026-04-21 17:55 | -24.77102 | -65.45571 | 39132 ft | 464 kts | 8° |
| 2026-04-21 17:56 | -24.70909 | -65.43534 | 39127 ft | 464 kts | 8° |
| 2026-04-21 17:56 | -24.65767 | -65.41822 | 39118 ft | 463 kts | 9° |
| 2026-04-21 17:57 | -24.59616 | -65.39753 | 39131 ft | 461 kts | 9° |
| 2026-04-21 17:57 | -24.52479 | -65.37342 | 39120 ft | 461 kts | 9° |
| 2026-04-21 17:58 | -24.47337 | -65.35607 | 39117 ft | 461 kts | 9° |
| 2026-04-21 17:58 | -24.41225 | -65.33550 | 39093 ft | 462 kts | 9° |
| 2026-04-21 17:59 | -24.35063 | -65.31478 | 39102 ft | 462 kts | 9° |
| 2026-04-21 17:59 | -24.28900 | -65.29405 | 39105 ft | 462 kts | 9° |
| 2026-04-21 18:00 | -24.22780 | -65.27351 | 39106 ft | 463 kts | 9° |
| 2026-04-21 18:00 | -24.16616 | -65.25283 | 39111 ft | 462 kts | 9° |
| 2026-04-21 18:01 | -24.10453 | -65.23219 | 39092 ft | 462 kts | 9° |
| 2026-04-21 18:01 | -24.04297 | -65.21159 | 39109 ft | 463 kts | 9° |
| 2026-04-21 18:02 | -23.98122 | -65.19095 | 39109 ft | 464 kts | 10° |
| 2026-04-21 18:02 | -23.91972 | -65.17039 | 39100 ft | 464 kts | 9° |
| 2026-04-21 18:03 | -23.85770 | -65.14969 | 39111 ft | 464 kts | 9° |
| 2026-04-21 18:03 | -23.79613 | -65.12917 | 39087 ft | 464 kts | 10° |
| 2026-04-21 18:04 | -23.73425 | -65.10856 | 39098 ft | 465 kts | 10° |
| 2026-04-21 18:04 | -23.67229 | -65.08795 | 39101 ft | 466 kts | 10° |
| 2026-04-21 18:05 | -23.61025 | -65.06730 | 39109 ft | 466 kts | 10° |
| 2026-04-21 18:05 | -23.54853 | -65.04683 | 39102 ft | 466 kts | 10° |
| 2026-04-21 18:06 | -23.48647 | -65.02626 | 39125 ft | 465 kts | 10° |
| 2026-04-21 18:06 | -23.42438 | -65.00569 | 39126 ft | 466 kts | 10° |
| 2026-04-21 18:07 | -23.36213 | -64.98514 | 39106 ft | 466 kts | 10° |
| 2026-04-21 18:07 | -23.30016 | -64.96455 | 39088 ft | 464 kts | 11° |
| 2026-04-21 18:08 | -23.23893 | -64.94427 | 39110 ft | 461 kts | 11° |
| 2026-04-21 18:08 | -23.17748 | -64.92399 | 39097 ft | 461 kts | 11° |
| 2026-04-21 18:09 | -23.11615 | -64.90379 | 39109 ft | 459 kts | 11° |
| 2026-04-21 18:09 | -23.05532 | -64.88374 | 39090 ft | 460 kts | 11° |
| 2026-04-21 18:10 | -22.99416 | -64.86362 | 39106 ft | 459 kts | 11° |
| 2026-04-21 18:10 | -22.93277 | -64.84345 | 39108 ft | 462 kts | 11° |
| 2026-04-21 18:11 | -22.87105 | -64.82316 | 39100 ft | 463 kts | 11° |
| 2026-04-21 18:11 | -22.80945 | -64.80288 | 39096 ft | 465 kts | 11° |
| 2026-04-21 18:12 | -22.74745 | -64.78251 | 39099 ft | 465 kts | 11° |
| 2026-04-21 18:12 | -22.68540 | -64.76215 | 39093 ft | 465 kts | 11° |
| 2026-04-21 18:13 | -22.62350 | -64.74185 | 39085 ft | 463 kts | 11° |
| 2026-04-21 18:13 | -22.56240 | -64.72180 | 39086 ft | 458 kts | 11° |
| 2026-04-21 18:14 | -22.47087 | -64.69186 | 39080 ft | 458 kts | 11° |
| 2026-04-21 18:15 | -22.41013 | -64.67203 | 39070 ft | 458 kts | 11° |
| 2026-04-21 18:15 | -22.34912 | -64.65213 | 39060 ft | 457 kts | 11° |
| 2026-04-21 18:16 | -22.28817 | -64.63222 | 39076 ft | 457 kts | 11° |
| 2026-04-21 18:16 | -22.22705 | -64.61231 | 39052 ft | 458 kts | 12° |
| 2026-04-21 18:17 | -22.16632 | -64.59272 | 39039 ft | 458 kts | 11° |
| 2026-04-21 18:17 | -22.10463 | -64.57308 | 39053 ft | 460 kts | 11° |
| 2026-04-21 18:18 | -22.04340 | -64.55356 | 39059 ft | 463 kts | 11° |
| 2026-04-21 18:18 | -21.98149 | -64.53379 | 39055 ft | 464 kts | 11° |
| 2026-04-21 18:19 | -21.91941 | -64.51398 | 39049 ft | 465 kts | 11° |
| 2026-04-21 18:19 | -21.85725 | -64.49417 | 39028 ft | 464 kts | 11° |
| 2026-04-21 18:20 | -21.79563 | -64.47453 | 39027 ft | 464 kts | 11° |
| 2026-04-21 18:20 | -21.73380 | -64.45484 | 39029 ft | 462 kts | 12° |
| 2026-04-21 18:21 | -21.67224 | -64.43527 | 39018 ft | 461 kts | 11° |
| 2026-04-21 18:21 | -21.61074 | -64.41576 | 39030 ft | 461 kts | 12° |
| 2026-04-21 18:22 | -21.54956 | -64.39633 | 39010 ft | 459 kts | 12° |
| 2026-04-21 18:22 | -21.48830 | -64.37688 | 39023 ft | 458 kts | 12° |
| 2026-04-21 18:23 | -21.42703 | -64.35750 | 39017 ft | 458 kts | 12° |
| 2026-04-21 18:23 | -21.36618 | -64.33824 | 39016 ft | 458 kts | 12° |
| 2026-04-21 18:24 | -21.30486 | -64.31875 | 38991 ft | 458 kts | 12° |
| 2026-04-21 18:24 | -21.24397 | -64.29922 | 39028 ft | 456 kts | 13° |
| 2026-04-21 18:25 | -21.18307 | -64.27966 | 39029 ft | 457 kts | 12° |
| 2026-04-21 18:25 | -21.12234 | -64.26024 | 39027 ft | 458 kts | 12° |
| 2026-04-21 18:26 | -21.06098 | -64.24067 | 39039 ft | 460 kts | 12° |
| 2026-04-21 18:26 | -20.99941 | -64.22104 | 39001 ft | 463 kts | 13° |
| 2026-04-21 18:27 | -20.93808 | -64.20147 | 39014 ft | 462 kts | 13° |
| 2026-04-21 18:27 | -20.87646 | -64.18184 | 39009 ft | 462 kts | 13° |
| 2026-04-21 18:28 | -20.81464 | -64.16217 | 38998 ft | 461 kts | 13° |
| 2026-04-21 18:28 | -20.75350 | -64.14271 | 38999 ft | 460 kts | 13° |
| 2026-04-21 18:29 | -20.69216 | -64.12322 | 38991 ft | 458 kts | 13° |
| 2026-04-21 18:29 | -20.63102 | -64.10379 | 38995 ft | 457 kts | 13° |
| 2026-04-21 18:30 | -20.57050 | -64.08450 | 38996 ft | 456 kts | 13° |
| 2026-04-21 18:30 | -20.50956 | -64.06508 | 39009 ft | 456 kts | 13° |
| 2026-04-21 18:31 | -20.44867 | -64.04571 | 38988 ft | 455 kts | 13° |
| 2026-04-21 18:31 | -20.38795 | -64.02641 | 38999 ft | 455 kts | 13° |
| 2026-04-21 18:32 | -20.32763 | -64.00723 | 39010 ft | 455 kts | 13° |
| 2026-04-21 18:32 | -20.26682 | -63.98793 | 39012 ft | 456 kts | 13° |
| 2026-04-21 18:33 | -20.20585 | -63.96858 | 38994 ft | 457 kts | 13° |
| 2026-04-21 18:33 | -20.14494 | -63.94927 | 39003 ft | 457 kts | 13° |
| 2026-04-21 18:34 | -20.08397 | -63.92997 | 39003 ft | 457 kts | 13° |
| 2026-04-21 18:34 | -20.02326 | -63.91074 | 38997 ft | 458 kts | 13° |
| 2026-04-21 18:35 | -19.97240 | -63.89466 | 38994 ft | 458 kts | 13° |
| 2026-04-21 18:35 | -19.90104 | -63.87213 | 39002 ft | 458 kts | 13° |
| 2026-04-21 18:36 | -19.83995 | -63.85268 | 38994 ft | 458 kts | 14° |
| 2026-04-21 18:36 | -19.77910 | -63.83322 | 38701 ft | 463 kts | 14° |
| 2026-04-21 18:36 | -19.74787 | -63.82325 | 37949 ft | 468 kts | 14° |
| 2026-04-21 18:37 | -19.71692 | -63.81337 | 37473 ft | 462 kts | 14° |
| 2026-04-21 18:37 | -19.68635 | -63.80360 | 37000 ft | 456 kts | 14° |
| 2026-04-21 18:37 | -19.65604 | -63.79392 | 36554 ft | 452 kts | 14° |
| 2026-04-21 18:37 | -19.62598 | -63.78434 | 36079 ft | 449 kts | 14° |
| 2026-04-21 18:38 | -19.59618 | -63.77484 | 35627 ft | 446 kts | 14° |
| 2026-04-21 18:38 | -19.56647 | -63.76539 | 35149 ft | 443 kts | 14° |
| 2026-04-21 18:38 | -19.53743 | -63.75614 | 34679 ft | 440 kts | 14° |
| 2026-04-21 18:38 | -19.50810 | -63.74682 | 34195 ft | 439 kts | 14° |
| 2026-04-21 18:39 | -19.47889 | -63.73753 | 33666 ft | 437 kts | 14° |
| 2026-04-21 18:39 | -19.44966 | -63.72825 | 33166 ft | 434 kts | 14° |
| 2026-04-21 18:39 | -19.42080 | -63.71908 | 32682 ft | 432 kts | 14° |
| 2026-04-21 18:39 | -19.39238 | -63.71005 | 32204 ft | 429 kts | 15° |
| 2026-04-21 18:40 | -19.36385 | -63.70099 | 31758 ft | 426 kts | 15° |
| 2026-04-21 18:40 | -19.33550 | -63.69200 | 31304 ft | 424 kts | 15° |
| 2026-04-21 18:40 | -19.31683 | -63.68606 | 31004 ft | 423 kts | 15° |
| 2026-04-21 18:40 | -19.27918 | -63.67413 | 30382 ft | 421 kts | 15° |
| 2026-04-21 18:41 | -19.25100 | -63.66520 | 29893 ft | 420 kts | 15° |
| 2026-04-21 18:41 | -19.22345 | -63.65646 | 29382 ft | 418 kts | 15° |
| 2026-04-21 18:41 | -19.19528 | -63.64754 | 28887 ft | 416 kts | 15° |
| 2026-04-21 18:41 | -19.16787 | -63.63886 | 28421 ft | 414 kts | 15° |
| 2026-04-21 18:42 | -19.14036 | -63.63015 | 27953 ft | 412 kts | 15° |
| 2026-04-21 18:42 | -19.11296 | -63.62148 | 27488 ft | 410 kts | 15° |
| 2026-04-21 18:42 | -19.08571 | -63.61286 | 27031 ft | 408 kts | 15° |
| 2026-04-21 18:42 | -19.05848 | -63.60424 | 26575 ft | 407 kts | 15° |
| 2026-04-21 18:43 | -19.03164 | -63.59575 | 26130 ft | 406 kts | 15° |
| 2026-04-21 18:43 | -19.00451 | -63.58718 | 25667 ft | 406 kts | 15° |
| 2026-04-21 18:43 | -18.97754 | -63.57865 | 25214 ft | 404 kts | 15° |
| 2026-04-21 18:43 | -18.95056 | -63.57013 | 24755 ft | 404 kts | 15° |
| 2026-04-21 18:44 | -18.92370 | -63.56165 | 24296 ft | 403 kts | 15° |
| 2026-04-21 18:44 | -18.89710 | -63.55218 | 23842 ft | 403 kts | 20° |
| 2026-04-21 18:44 | -18.87140 | -63.54065 | 23362 ft | 403 kts | 21° |
| 2026-04-21 18:44 | -18.84566 | -63.52892 | 22885 ft | 402 kts | 22° |
| 2026-04-21 18:45 | -18.82033 | -63.51737 | 22414 ft | 401 kts | 22° |
| 2026-04-21 18:45 | -18.79463 | -63.50568 | 21948 ft | 401 kts | 22° |
| 2026-04-21 18:45 | -18.76891 | -63.49403 | 21478 ft | 401 kts | 22° |
| 2026-04-21 18:45 | -18.74361 | -63.48261 | 20998 ft | 388 kts | 22° |
| 2026-04-21 18:46 | -18.71923 | -63.47162 | 20559 ft | 377 kts | 22° |
| 2026-04-21 18:46 | -18.69514 | -63.46077 | 20160 ft | 376 kts | 22° |
| 2026-04-21 18:46 | -18.67918 | -63.45360 | 19877 ft | 376 kts | 22° |
| 2026-04-21 18:46 | -18.64740 | -63.43932 | 19283 ft | 368 kts | 22° |
| 2026-04-21 18:47 | -18.62418 | -63.42889 | 18874 ft | 358 kts | 22° |
| 2026-04-21 18:47 | -18.60119 | -63.41857 | 18458 ft | 359 kts | 22° |
| 2026-04-21 18:47 | -18.57814 | -63.40823 | 18002 ft | 360 kts | 22° |
| 2026-04-21 18:47 | -18.56282 | -63.40136 | 17697 ft | 360 kts | 22° |
| 2026-04-21 18:48 | -18.53973 | -63.39100 | 17253 ft | 360 kts | 22° |
| 2026-04-21 18:48 | -18.51676 | -63.38070 | 16820 ft | 354 kts | 22° |
| 2026-04-21 18:48 | -18.49446 | -63.37069 | 16381 ft | 342 kts | 22° |
| 2026-04-21 18:48 | -18.47259 | -63.36089 | 15993 ft | 340 kts | 22° |
| 2026-04-21 18:49 | -18.45106 | -63.35124 | 15599 ft | 340 kts | 22° |
| 2026-04-21 18:49 | -18.42923 | -63.34146 | 15206 ft | 341 kts | 22° |
| 2026-04-21 18:49 | -18.41476 | -63.33498 | 14937 ft | 341 kts | 22° |
| 2026-04-21 18:49 | -18.38593 | -63.32207 | 14380 ft | 329 kts | 22° |
| 2026-04-21 18:50 | -18.36477 | -63.31260 | 14000 ft | 330 kts | 22° |
| 2026-04-21 18:50 | -18.34383 | -63.30323 | 13587 ft | 332 kts | 22° |
| 2026-04-21 18:50 | -18.32247 | -63.29368 | 13160 ft | 333 kts | 22° |
| 2026-04-21 18:50 | -18.30139 | -63.28425 | 12729 ft | 321 kts | 22° |
| 2026-04-21 18:51 | -18.28081 | -63.27504 | 12359 ft | 321 kts | 22° |
| 2026-04-21 18:51 | -18.26027 | -63.26586 | 11966 ft | 321 kts | 22° |
| 2026-04-21 18:51 | -18.23964 | -63.25663 | 11588 ft | 322 kts | 22° |
| 2026-04-21 18:51 | -18.21907 | -63.24744 | 11174 ft | 315 kts | 22° |
| 2026-04-21 18:52 | -18.19902 | -63.23849 | 10805 ft | 312 kts | 22° |
| 2026-04-21 18:52 | -18.17905 | -63.22957 | 10442 ft | 313 kts | 22° |
| 2026-04-21 18:52 | -18.15952 | -63.22084 | 10209 ft | 298 kts | 22° |
| 2026-04-21 18:52 | -18.14100 | -63.21256 | 10080 ft | 283 kts | 22° |
| 2026-04-21 18:53 | -18.12305 | -63.20456 | 9941 ft | 277 kts | 22° |
| 2026-04-21 18:53 | -18.10525 | -63.19661 | 9616 ft | 278 kts | 21° |
| 2026-04-21 18:53 | -18.08735 | -63.18863 | 9288 ft | 280 kts | 21° |
| 2026-04-21 18:53 | -18.06940 | -63.18063 | 9099 ft | 277 kts | 21° |
| 2026-04-21 18:54 | -18.05202 | -63.17288 | 9021 ft | 266 kts | 21° |
| 2026-04-21 18:54 | -18.03555 | -63.16552 | 8688 ft | 250 kts | 21° |
| 2026-04-21 18:54 | -18.01984 | -63.15852 | 8158 ft | 247 kts | 21° |
| 2026-04-21 18:54 | -18.00397 | -63.15145 | 7832 ft | 247 kts | 21° |
| 2026-04-21 18:55 | -17.98814 | -63.14440 | 7526 ft | 247 kts | 21° |
| 2026-04-21 18:55 | -17.97229 | -63.13734 | 7233 ft | 246 kts | 21° |
| 2026-04-21 18:55 | -17.95653 | -63.13032 | 6930 ft | 245 kts | 22° |
| 2026-04-21 18:55 | -17.94090 | -63.12336 | 6654 ft | 243 kts | 21° |
| 2026-04-21 18:56 | -17.92532 | -63.11642 | 6372 ft | 242 kts | 21° |
| 2026-04-21 18:56 | -17.91015 | -63.10967 | 6119 ft | 239 kts | 21° |
| 2026-04-21 18:56 | -17.89492 | -63.10289 | 5764 ft | 231 kts | 21° |
| 2026-04-21 18:56 | -17.88067 | -63.09651 | 5491 ft | 220 kts | 22° |
| 2026-04-21 18:57 | -17.86784 | -63.08811 | 5237 ft | 215 kts | 35° |
| 2026-04-21 18:57 | -17.85640 | -63.07866 | 5147 ft | 204 kts | 36° |
| 2026-04-21 18:57 | -17.84546 | -63.06966 | 5024 ft | 196 kts | 36° |
| 2026-04-21 18:57 | -17.83477 | -63.06099 | 4981 ft | 198 kts | 35° |
| 2026-04-21 18:58 | -17.82369 | -63.05209 | 4895 ft | 203 kts | 34° |
| 2026-04-21 18:58 | -17.81238 | -63.04303 | 4737 ft | 206 kts | 32° |
| 2026-04-21 18:58 | -17.79937 | -63.03813 | 4460 ft | 197 kts | 359° |
| 2026-04-21 18:58 | -17.78618 | -63.04006 | 4214 ft | 185 kts | 334° |
| 2026-04-21 18:59 | -17.77568 | -63.04717 | 4057 ft | 178 kts | 324° |
| 2026-04-21 18:59 | -17.76489 | -63.05435 | 3824 ft | 191 kts | 324° |
| 2026-04-21 18:59 | -17.75298 | -63.06229 | 3559 ft | 217 kts | 327° |
| 2026-04-21 18:59 | -17.73966 | -63.07126 | 3193 ft | 236 kts | 327° |
| 2026-04-21 19:00 | -17.72630 | -63.08049 | 3110 ft | 233 kts | 325° |
| 2026-04-21 19:00 | -17.71280 | -63.09000 | 3094 ft | 228 kts | 325° |
| 2026-04-21 19:00 | -17.70003 | -63.09938 | 3027 ft | 228 kts | 324° |
| 2026-04-21 19:00 | -17.68732 | -63.10891 | 3358 ft | 224 kts | 322° |
| 2026-04-21 19:01 | -17.67424 | -63.11890 | 4013 ft | 241 kts | 324° |
| 2026-04-21 19:01 | -17.65955 | -63.12893 | 3967 ft | 255 kts | 327° |
| 2026-04-21 19:01 | -17.64412 | -63.13841 | 3962 ft | 259 kts | 329° |
| 2026-04-21 19:01 | -17.62792 | -63.14626 | 3989 ft | 258 kts | 339° |
| 2026-04-21 19:02 | -17.61022 | -63.14966 | 3996 ft | 265 kts | 2° |
| 2026-04-21 19:02 | -17.59258 | -63.14394 | 3972 ft | 271 kts | 31° |
| 2026-04-21 19:02 | -17.57905 | -63.13017 | 3970 ft | 275 kts | 53° |
| 2026-04-21 19:02 | -17.56921 | -63.11288 | 4090 ft | 276 kts | 63° |
| 2026-04-21 19:03 | -17.56318 | -63.09366 | 4785 ft | 283 kts | 80° |
| 2026-04-21 19:03 | -17.56516 | -63.07342 | 5006 ft | 283 kts | 112° |
| 2026-04-21 19:03 | -17.57695 | -63.05732 | 4999 ft | 284 kts | 146° |
| 2026-04-21 19:03 | -17.59412 | -63.04748 | 4985 ft | 284 kts | 153° |
| 2026-04-21 19:04 | -17.61133 | -63.03714 | 4981 ft | 283 kts | 150° |
| 2026-04-21 19:04 | -17.62780 | -63.02663 | 4959 ft | 270 kts | 149° |
| 2026-04-21 19:04 | -17.64340 | -63.01655 | 4946 ft | 256 kts | 149° |
| 2026-04-21 19:04 | -17.65807 | -63.00704 | 4944 ft | 240 kts | 149° |
| 2026-04-21 19:05 | -17.67187 | -62.99810 | 4956 ft | 228 kts | 149° |
| 2026-04-21 19:05 | -17.68534 | -62.98938 | 4972 ft | 227 kts | 149° |
| 2026-04-21 19:05 | -17.69865 | -62.98070 | 4975 ft | 230 kts | 149° |
| 2026-04-21 19:05 | -17.71224 | -62.97184 | 4982 ft | 227 kts | 149° |
| 2026-04-21 19:06 | -17.72531 | -62.96335 | 4997 ft | 214 kts | 149° |
| 2026-04-21 19:06 | -17.73771 | -62.95533 | 4981 ft | 206 kts | 149° |
| 2026-04-21 19:06 | -17.74985 | -62.94744 | 4970 ft | 205 kts | 150° |
| 2026-04-21 19:06 | -17.76311 | -62.94292 | 4968 ft | 200 kts | 186° |
| 2026-04-21 19:07 | -17.77564 | -62.94802 | 4997 ft | 194 kts | 226° |
| 2026-04-21 19:07 | -17.78311 | -62.95972 | 4989 ft | 194 kts | 252° |
| 2026-04-21 19:07 | -17.78664 | -62.97334 | 4991 ft | 189 kts | 259° |
| 2026-04-21 19:07 | -17.78944 | -62.98648 | 4909 ft | 180 kts | 260° |
| 2026-04-21 19:08 | -17.79204 | -62.99874 | 4787 ft | 170 kts | 260° |
| 2026-04-21 19:08 | -17.79389 | -63.01095 | 4593 ft | 168 kts | 276° |
| 2026-04-21 19:08 | -17.79079 | -63.02341 | 4506 ft | 190 kts | 290° |
| 2026-04-21 19:08 | -17.78725 | -63.03655 | 4244 ft | 185 kts | 275° |
| 2026-04-21 19:09 | -17.78557 | -63.04968 | 4026 ft | 181 kts | 296° |
| 2026-04-21 19:09 | -17.77617 | -63.05764 | 3855 ft | 179 kts | 340° |
| 2026-04-21 19:09 | -17.76419 | -63.06159 | 3683 ft | 191 kts | 338° |
| 2026-04-21 19:09 | -17.75166 | -63.06758 | 3330 ft | 201 kts | 333° |
| 2026-04-21 19:10 | -17.73941 | -63.07449 | 3126 ft | 199 kts | 329° |
| 2026-04-21 19:10 | -17.72724 | -63.08186 | 2969 ft | 201 kts | 329° |
| 2026-04-21 19:10 | -17.71521 | -63.08910 | 2800 ft | 197 kts | 329° |
| 2026-04-21 19:10 | -17.70364 | -63.09628 | 2437 ft | 194 kts | 328° |
| 2026-04-21 19:11 | -17.69255 | -63.10358 | 2262 ft | 183 kts | 327° |
| 2026-04-21 19:11 | -17.68190 | -63.11070 | 1947 ft | 179 kts | 328° |
| 2026-04-21 19:11 | -17.67154 | -63.11754 | 1657 ft | 173 kts | 328° |
| 2026-04-21 19:11 | -17.66175 | -63.12404 | 1362 ft | 158 kts | 328° |
| 2026-04-21 19:12 | -17.65310 | -63.12980 | 1253 ft | 135 kts | 328° |
| 2026-04-21 19:12 | -17.64648 | -63.13424 | 1251 ft | 87 kts | 327° |
| 2026-04-21 19:12 | -17.64316 | -63.13647 | 1249 ft | 33 kts | 328° |
| 2026-04-21 19:12 | -17.64180 | -63.13738 | 1251 ft | 18 kts | 327° |
| 2026-04-21 19:13 | -17.64077 | -63.13807 | 1233 ft | 18 kts | 327° |
| 2026-04-21 19:13 | -17.63977 | -63.13874 | 1233 ft | 16 kts | 327° |
| 2026-04-21 19:13 | -17.63910 | -63.13920 | 1233 ft | 9 kts | 323° |
| 2026-04-21 19:13 | -17.63905 | -63.13978 | 1233 ft | 9 kts | 255° |
| 2026-04-21 19:14 | -17.63929 | -63.14030 | 1249 ft | 8 kts | 238° |
| 2026-04-21 19:14 | -17.63960 | -63.14076 | 1252 ft | 8 kts | 227° |
| 2026-04-21 19:14 | -17.64007 | -63.14080 | 1243 ft | 7 kts | 158° |
| 2026-04-21 19:14 | -17.64057 | -63.14052 | 1249 ft | 9 kts | 149° |
| 2026-04-21 19:15 | -17.64119 | -63.14011 | 1240 ft | 12 kts | 147° |
| 2026-04-21 19:15 | -17.64194 | -63.13960 | 1247 ft | 14 kts | 147° |
| 2026-04-21 19:15 | -17.64260 | -63.13915 | 1251 ft | 11 kts | 148° |
| 2026-04-21 19:15 | -17.64323 | -63.13873 | 1250 ft | 11 kts | 148° |
| 2026-04-21 19:16 | -17.64389 | -63.13844 | 1245 ft | 9 kts | 195° |
| 2026-04-21 19:16 | -17.64427 | -63.13901 | 1249 ft | 11 kts | 239° |
| 2026-04-21 19:16 | -17.64467 | -63.13971 | 1252 ft | 11 kts | 238° |
| 2026-04-21 19:16 | -17.64518 | -63.14021 | 1242 ft | 9 kts | 195° |
| 2026-04-21 19:17 | -17.64619 | -63.13969 | 1244 ft | 10 kts | 146° |
| 2026-04-21 19:17 | -17.64657 | -63.13943 | 1252 ft | 5 kts | 147° |
| 2026-04-21 19:17 | -17.64691 | -63.13920 | 1252 ft | 6 kts | 146° |
| 2026-04-21 19:18 | -17.64722 | -63.13922 | 1251 ft | 4 kts | 215° |
| 2026-04-21 19:18 | -17.64743 | -63.13945 | 1252 ft | 3 kts | 232° |
| 2026-04-21 19:18 | -17.64754 | -63.13961 | 1252 ft | 1 kts | 236° |
| 2026-04-21 19:18 | -17.64758 | -63.13967 | 1250 ft | 1 kts | 236° |
| 2026-04-21 19:19 | -17.64759 | -63.13969 | 1250 ft | 0 kts | 236° |